createdAt,value
2023-04-18T00:00:34.034Z,5.10
2023-04-18T00:03:04.670Z,3.20
2023-04-18T00:05:33.894Z,3.30
2023-04-18T00:08:03.095Z,4.80
2023-04-18T00:10:31.563Z,4.50
2023-04-18T00:13:00.650Z,6.60
2023-04-18T00:15:30.465Z,3.70
2023-04-18T00:17:58.780Z,4.20
2023-04-18T00:20:27.365Z,4.90
2023-04-18T00:22:56.368Z,3.60
2023-04-18T00:25:24.741Z,4.20
2023-04-18T00:27:53.197Z,4.40
2023-04-18T00:30:21.667Z,10.10
2023-04-18T00:32:50.091Z,4.50
2023-04-18T00:35:19.747Z,4.50
2023-04-18T00:37:48.232Z,5.00
2023-04-18T00:40:17.847Z,3.00
2023-04-18T00:42:46.457Z,4.20
2023-04-18T00:45:15.868Z,4.80
2023-04-18T00:47:44.559Z,4.00
2023-04-18T00:50:13.299Z,5.70
2023-04-18T00:52:43.227Z,2.70
2023-04-18T00:55:11.792Z,10.10
2023-04-18T00:57:40.289Z,5.30
2023-04-18T01:00:10.537Z,3.30
2023-04-18T01:02:41.053Z,4.50
2023-04-18T01:05:10.018Z,3.40
2023-04-18T01:07:41.909Z,7.20
2023-04-18T01:10:10.792Z,4.30
2023-04-18T01:12:40.536Z,5.80
2023-04-18T01:15:09.478Z,7.70
2023-04-18T01:17:38.757Z,3.60
2023-04-18T01:20:08.182Z,7.60
2023-04-18T01:22:36.765Z,6.00
2023-04-18T01:25:09.336Z,4.90
2023-04-18T01:27:38.083Z,3.50
2023-04-18T01:30:07.654Z,4.30
2023-04-18T01:32:36.493Z,3.00
2023-04-18T01:35:05.823Z,3.80
2023-04-18T01:37:35.392Z,5.10
2023-04-18T01:40:04.806Z,4.60
2023-04-18T01:42:33.472Z,3.90
2023-04-18T01:45:02.515Z,6.20
2023-04-18T01:47:31.168Z,4.30
2023-04-18T01:49:59.687Z,3.50
2023-04-18T01:52:31.279Z,10.60
2023-04-18T01:54:59.721Z,6.10
2023-04-18T01:57:28.975Z,8.00
2023-04-18T01:59:57.310Z,3.10
2023-04-18T02:02:26.018Z,4.50
2023-04-18T02:04:54.458Z,6.50
2023-04-18T02:07:23.044Z,7.30
2023-04-18T02:09:51.421Z,6.40
2023-04-18T02:12:20.392Z,3.70
2023-04-18T02:14:51.763Z,4.30
2023-04-18T02:17:21.779Z,5.20
2023-04-18T02:19:53.647Z,7.50
2023-04-18T02:22:22.509Z,6.80
2023-04-18T02:24:51.011Z,4.70
2023-04-18T02:27:19.437Z,4.90
2023-04-18T02:29:48.221Z,9.60
2023-04-18T02:32:16.661Z,4.20
2023-04-18T02:34:46.087Z,7.80
2023-04-18T02:37:14.577Z,3.70
2023-04-18T02:39:43.025Z,13.10
2023-04-18T02:42:11.513Z,3.80
2023-04-18T02:44:39.975Z,5.30
2023-04-18T02:47:08.471Z,7.80
2023-04-18T02:49:39.063Z,4.10
2023-04-18T02:52:08.148Z,8.50
2023-04-18T02:54:36.516Z,5.30
2023-04-18T02:57:08.445Z,6.90
2023-04-18T02:59:54.845Z,4.70
2023-04-18T03:02:42.923Z,4.20
2023-04-18T03:05:47.264Z,4.10
2023-04-18T03:08:16.803Z,11.60
2023-04-18T03:10:45.434Z,5.40
2023-04-18T03:13:14.129Z,7.90
2023-04-18T03:15:43.190Z,3.90
2023-04-18T03:18:12.739Z,6.30
2023-04-18T03:20:41.375Z,6.10
2023-04-18T03:23:10.056Z,6.50
2023-04-18T03:25:38.422Z,7.70
2023-04-18T03:28:06.904Z,3.80
2023-04-18T03:30:36.211Z,4.80
2023-04-18T03:33:05.481Z,7.10
2023-04-18T03:35:34.353Z,11.50
2023-04-18T03:38:03.022Z,4.30
2023-04-18T03:40:34.263Z,10.40
2023-04-18T03:43:07.363Z,8.50
2023-04-18T03:45:36.856Z,8.60
2023-04-18T03:48:06.315Z,9.70
2023-04-18T03:50:36.666Z,6.40
2023-04-18T03:53:05.763Z,3.50
2023-04-18T03:55:34.749Z,7.60
2023-04-18T03:58:03.731Z,7.60
2023-04-18T04:00:32.420Z,4.60
2023-04-18T04:03:04.069Z,3.90
2023-04-18T04:05:33.139Z,4.50
2023-04-18T04:08:01.868Z,6.60
2023-04-18T04:10:30.749Z,5.50
2023-04-18T04:13:00.081Z,5.00
2023-04-18T04:15:29.451Z,10.90
2023-04-18T04:18:02.829Z,4.30
2023-04-18T04:20:31.742Z,5.70
2023-04-18T04:23:06.577Z,4.90
2023-04-18T04:25:35.970Z,4.50
2023-04-18T04:28:08.658Z,9.00
2023-04-18T04:30:44.809Z,5.90
2023-04-18T04:33:13.296Z,5.30
2023-04-18T04:35:42.076Z,9.10
2023-04-18T04:38:12.608Z,4.20
2023-04-18T04:40:46.567Z,3.90
2023-04-18T04:43:16.683Z,6.30
2023-04-18T04:45:46.565Z,4.40
2023-04-18T04:48:15.556Z,6.30
2023-04-18T04:50:44.764Z,5.50
2023-04-18T04:53:13.320Z,4.70
2023-04-18T04:55:42.115Z,6.00
2023-04-18T04:58:10.825Z,3.20
2023-04-18T05:00:48.230Z,5.30
2023-04-18T05:03:17.194Z,5.60
2023-04-18T05:05:46.095Z,5.30
2023-04-18T05:08:14.447Z,4.70
2023-04-18T05:10:43.518Z,4.50
2023-04-18T05:13:12.127Z,7.10
2023-04-18T05:15:41.121Z,5.10
2023-04-18T05:18:09.557Z,4.40
2023-04-18T05:20:37.945Z,4.10
2023-04-18T05:23:06.358Z,4.00
2023-04-18T05:25:35.003Z,6.10
2023-04-18T05:28:08.613Z,4.50
2023-04-18T05:30:37.076Z,4.10
2023-04-18T05:33:05.704Z,3.80
2023-04-18T05:35:34.267Z,4.70
2023-04-18T05:38:02.780Z,6.70
2023-04-18T05:40:31.308Z,8.80
2023-04-18T05:43:01.170Z,6.80
2023-04-18T05:45:29.759Z,4.40
2023-04-18T05:47:58.604Z,4.80
2023-04-18T05:50:27.282Z,5.30
2023-04-18T05:52:55.817Z,6.50
2023-04-18T05:55:24.232Z,4.60
2023-04-18T05:57:52.912Z,7.10
2023-04-18T06:00:21.925Z,8.10
2023-04-18T06:02:51.205Z,6.10
2023-04-18T06:05:20.327Z,8.10
2023-04-18T06:07:48.955Z,6.20
2023-04-18T06:10:17.659Z,8.30
2023-04-18T06:12:46.020Z,5.90
2023-04-18T06:15:14.500Z,6.30
2023-04-18T06:17:43.169Z,6.60
2023-04-18T06:20:12.082Z,6.00
2023-04-18T06:22:40.702Z,7.00
2023-04-18T06:25:10.225Z,5.90
2023-04-18T06:27:39.063Z,5.50
2023-04-18T06:30:08.361Z,6.70
2023-04-18T06:32:36.788Z,5.20
2023-04-18T06:35:05.837Z,11.20
2023-04-18T06:37:34.928Z,7.90
2023-04-18T06:40:03.721Z,8.00
2023-04-18T06:42:32.372Z,5.10
2023-04-18T06:45:01.088Z,7.60
2023-04-18T06:47:29.863Z,7.80
2023-04-18T06:49:58.682Z,7.50
2023-04-18T06:52:27.095Z,7.50
2023-04-18T06:54:55.768Z,6.10
2023-04-18T06:57:24.441Z,6.30
2023-04-18T06:59:53.126Z,11.70
2023-04-18T07:02:21.552Z,5.10
2023-04-18T07:04:50.484Z,9.50
2023-04-18T07:07:19.225Z,9.50
2023-04-18T07:09:49.282Z,7.70
2023-04-18T07:12:18.438Z,9.90
2023-04-18T07:14:47.269Z,7.30
2023-04-18T07:17:15.846Z,7.80
2023-04-18T07:19:44.564Z,5.10
2023-04-18T07:22:12.974Z,9.10
2023-04-18T07:24:41.426Z,9.00
2023-04-18T07:27:09.980Z,11.00
2023-04-18T07:29:38.656Z,9.40
2023-04-18T07:32:08.499Z,9.10
2023-04-18T07:34:37.874Z,7.10
2023-04-18T07:37:07.188Z,9.20
2023-04-18T07:39:36.476Z,8.50
2023-04-18T07:42:05.061Z,8.60
2023-04-18T07:44:35.289Z,15.00
2023-04-18T07:47:04.098Z,14.30
2023-04-18T07:49:32.698Z,15.40
2023-04-18T07:52:01.278Z,12.90
2023-04-18T07:54:30.047Z,8.60
2023-04-18T07:56:59.378Z,8.10
2023-04-18T07:59:29.045Z,10.30
2023-04-18T08:01:57.323Z,10.20
2023-04-18T08:04:29.101Z,7.80
2023-04-18T08:06:58.488Z,12.10
2023-04-18T08:09:26.959Z,7.80
2023-04-18T08:11:56.971Z,8.40
2023-04-18T08:14:25.374Z,7.50
2023-04-18T08:16:53.983Z,8.10
2023-04-18T08:19:22.314Z,11.80
2023-04-18T08:21:51.438Z,9.90
2023-04-18T08:24:19.802Z,7.90
2023-04-18T08:26:48.275Z,7.10
2023-04-18T08:29:16.724Z,8.10
2023-04-18T08:31:45.074Z,10.70
2023-04-18T08:34:13.718Z,6.70
2023-04-18T08:36:42.271Z,7.70
2023-04-18T08:39:11.573Z,9.50
2023-04-18T08:41:40.018Z,8.30
2023-04-18T08:44:08.562Z,12.80
2023-04-18T08:46:37.885Z,11.40
2023-04-18T08:49:06.367Z,9.50
2023-04-18T08:51:35.540Z,8.80
2023-04-18T08:54:06.402Z,10.70
2023-04-18T08:56:37.723Z,7.90
2023-04-18T08:59:06.277Z,10.00
2023-04-18T09:01:59.074Z,10.80
2023-04-18T09:04:45.053Z,10.30
2023-04-18T09:07:14.968Z,10.30
2023-04-18T09:09:45.775Z,7.40
2023-04-18T09:12:16.222Z,8.30
2023-04-18T09:14:46.991Z,10.30
2023-04-18T09:17:32.163Z,9.50
2023-04-18T09:20:01.812Z,9.10
2023-04-18T09:22:47.356Z,9.90
2023-04-18T09:25:27.637Z,8.90
2023-04-18T09:28:02.001Z,13.80
2023-04-18T09:30:35.165Z,7.60
2023-04-18T09:33:04.934Z,6.30
2023-04-18T09:35:33.581Z,11.40
2023-04-18T09:38:02.177Z,9.20
2023-04-18T09:40:31.287Z,9.00
2023-04-18T09:42:59.777Z,10.00
2023-04-18T09:45:28.903Z,11.50
2023-04-18T09:47:57.689Z,6.80
2023-04-18T09:50:26.210Z,7.40
2023-04-18T09:52:54.651Z,7.30
2023-04-18T09:55:23.318Z,9.30
2023-04-18T09:57:51.791Z,8.50
2023-04-18T10:00:25.433Z,6.10
2023-04-18T10:02:58.406Z,11.10
2023-04-18T10:05:28.754Z,7.60
2023-04-18T10:07:58.615Z,6.70
2023-04-18T10:10:27.112Z,8.50
2023-04-18T10:12:56.783Z,6.70
2023-04-18T10:15:26.630Z,5.20
2023-04-18T10:18:05.316Z,8.70
2023-04-18T10:20:35.585Z,6.30
2023-04-18T10:23:32.784Z,6.80
2023-04-18T10:26:02.000Z,9.40
2023-04-18T10:28:51.294Z,9.90
2023-04-18T10:31:23.783Z,8.10
2023-04-18T10:34:18.322Z,8.60
2023-04-18T10:37:06.373Z,6.10
2023-04-18T10:39:57.776Z,15.60
2023-04-18T10:42:48.522Z,7.80
2023-04-18T10:45:23.781Z,7.90
2023-04-18T10:48:14.771Z,10.50
2023-04-18T10:51:15.904Z,7.40
2023-04-18T10:53:51.083Z,4.70
2023-04-18T10:56:19.425Z,6.80
2023-04-18T10:58:51.732Z,5.80
2023-04-18T11:01:32.407Z,5.30
2023-04-18T11:04:01.578Z,9.80
2023-04-18T11:06:31.625Z,7.00
2023-04-18T11:09:13.589Z,9.00
2023-04-18T11:11:42.186Z,11.60
2023-04-18T11:14:10.850Z,7.20
2023-04-18T11:16:40.139Z,12.40
2023-04-18T11:19:21.925Z,10.70
2023-04-18T11:21:51.541Z,7.30
2023-04-18T11:24:24.400Z,9.10
2023-04-18T11:26:56.395Z,6.40
2023-04-18T11:29:25.153Z,10.10
2023-04-18T11:31:55.995Z,6.90
2023-04-18T11:34:30.887Z,7.60
2023-04-18T11:36:59.379Z,7.40
2023-04-18T11:39:28.087Z,6.90
2023-04-18T11:41:57.436Z,5.90
2023-04-18T11:44:26.406Z,8.10
2023-04-18T11:46:54.690Z,7.00
2023-04-18T11:49:30.140Z,6.70
2023-04-18T11:52:01.896Z,5.20
2023-04-18T11:54:48.432Z,10.50
2023-04-18T11:57:23.189Z,5.40
2023-04-18T11:59:56.565Z,8.60
2023-04-18T12:02:26.657Z,8.10
2023-04-18T12:04:59.667Z,9.00
2023-04-18T12:07:41.361Z,9.40
2023-04-18T12:10:22.128Z,15.30
2023-04-18T12:12:51.861Z,10.50
2023-04-18T12:15:20.690Z,8.40
2023-04-18T12:17:49.107Z,5.20
2023-04-18T12:20:18.636Z,7.70
2023-04-18T12:22:52.036Z,7.80
2023-04-18T12:25:27.736Z,4.60
2023-04-18T12:27:58.492Z,5.40
2023-04-18T12:30:31.872Z,7.30
2023-04-18T12:33:01.606Z,3.20
2023-04-18T12:35:31.243Z,6.70
2023-04-18T12:38:01.251Z,4.20
2023-04-18T12:40:30.045Z,8.70
2023-04-18T12:42:58.515Z,6.50
2023-04-18T12:45:27.355Z,6.80
2023-04-18T12:47:55.776Z,7.70
2023-04-18T12:50:25.537Z,6.70
2023-04-18T12:52:54.782Z,6.60
2023-04-18T12:55:23.212Z,6.40
2023-04-18T12:57:54.517Z,5.00
2023-04-18T13:00:24.158Z,8.40
2023-04-18T13:02:53.004Z,5.80
2023-04-18T13:05:22.629Z,6.60
2023-04-18T13:07:56.233Z,10.10
2023-04-18T13:10:31.164Z,5.40
2023-04-18T13:12:59.688Z,10.60
2023-04-18T13:15:28.008Z,8.80
2023-04-18T13:17:57.102Z,11.60
2023-04-18T13:20:25.807Z,9.60
2023-04-18T13:22:54.192Z,40.50
2023-04-18T13:25:23.463Z,12.50
2023-04-18T13:27:52.276Z,9.60
2023-04-18T13:30:20.652Z,16.00
2023-04-18T13:32:49.501Z,14.60
2023-04-18T13:35:18.218Z,14.10
2023-04-18T13:37:46.731Z,8.60
2023-04-18T13:40:15.805Z,11.00
2023-04-18T13:42:44.362Z,7.10
2023-04-18T13:45:12.815Z,7.30
2023-04-18T13:47:41.573Z,6.30
2023-04-18T13:50:11.165Z,7.60
2023-04-18T13:52:39.581Z,6.30
2023-04-18T13:55:08.552Z,5.80
2023-04-18T13:57:37.765Z,8.20
2023-04-18T14:00:07.308Z,8.00
2023-04-18T14:02:41.769Z,9.60
2023-04-18T14:05:10.845Z,5.10
2023-04-18T14:07:39.573Z,7.60
2023-04-18T14:10:08.687Z,10.50
2023-04-18T14:12:37.731Z,10.10
2023-04-18T14:15:07.044Z,9.50
2023-04-18T14:17:35.873Z,10.40
2023-04-18T14:20:05.494Z,9.00
2023-04-18T14:22:34.626Z,5.40
2023-04-18T14:25:03.180Z,7.30
2023-04-18T14:27:33.189Z,7.00
2023-04-18T14:30:01.706Z,9.00
2023-04-18T14:32:31.016Z,7.30
2023-04-18T14:34:59.347Z,10.00
2023-04-18T14:37:27.685Z,9.10
2023-04-18T14:39:56.466Z,13.80
2023-04-18T14:42:24.934Z,12.10
2023-04-18T14:44:53.414Z,7.80
2023-04-18T14:47:24.346Z,10.80
2023-04-18T14:49:52.840Z,9.50
2023-04-18T14:52:21.357Z,7.60
2023-04-18T14:54:49.904Z,9.50
2023-04-18T14:57:18.379Z,8.40
2023-04-18T14:59:46.861Z,16.40
2023-04-18T15:02:15.846Z,7.30
2023-04-18T15:04:44.497Z,9.90
2023-04-18T15:07:13.267Z,11.80
2023-04-18T15:09:41.730Z,9.50
2023-04-18T15:12:10.495Z,7.60
2023-04-18T15:14:39.906Z,7.00
2023-04-18T15:17:08.541Z,11.40
2023-04-18T15:19:37.746Z,10.50
2023-04-18T15:22:06.991Z,11.50
2023-04-18T15:24:35.438Z,10.20
2023-04-18T15:27:04.074Z,9.50
2023-04-18T15:29:32.430Z,8.70
2023-04-18T15:32:01.893Z,11.20
2023-04-18T15:34:30.509Z,9.80
2023-04-18T15:36:58.943Z,14.90
2023-04-18T15:39:27.527Z,11.40
2023-04-18T15:41:56.712Z,10.80
2023-04-18T15:44:24.980Z,11.10
2023-04-18T15:46:53.853Z,12.10
2023-04-18T15:49:22.843Z,12.90
2023-04-18T15:51:51.116Z,12.50
2023-04-18T15:54:19.806Z,10.00
2023-04-18T15:56:48.562Z,9.90
2023-04-18T15:59:17.176Z,9.20
2023-04-18T16:01:46.281Z,11.40
2023-04-18T16:04:15.680Z,15.30
2023-04-18T16:06:44.619Z,12.90
2023-04-18T16:09:13.343Z,11.10
2023-04-18T16:11:41.847Z,10.70
2023-04-18T16:14:10.515Z,10.90
2023-04-18T16:16:39.258Z,10.90
2023-04-18T16:19:07.678Z,8.10
2023-04-18T16:21:36.364Z,9.70
2023-04-18T16:24:05.352Z,14.90
2023-04-18T16:26:34.255Z,10.80
2023-04-18T16:29:03.051Z,8.00
2023-04-18T16:31:33.912Z,9.80
2023-04-18T16:34:03.489Z,9.10
2023-04-18T16:36:34.451Z,11.50
2023-04-18T16:39:03.007Z,16.10
2023-04-18T16:41:31.895Z,10.50
2023-04-18T16:44:00.680Z,9.30
2023-04-18T16:46:32.471Z,12.80
2023-04-18T16:49:02.030Z,9.90
2023-04-18T16:51:31.397Z,12.20
2023-04-18T16:53:59.652Z,13.00
2023-04-18T16:56:29.321Z,6.40
2023-04-18T16:58:58.769Z,8.30
2023-04-18T17:01:27.281Z,10.80
2023-04-18T17:03:56.061Z,7.50
2023-04-18T17:06:25.056Z,9.50
2023-04-18T17:08:54.102Z,31.40
2023-04-18T17:11:22.569Z,11.70
2023-04-18T17:13:51.646Z,9.90
2023-04-18T17:16:20.343Z,9.60
2023-04-18T17:18:50.112Z,7.90
2023-04-18T17:21:18.684Z,18.90
2023-04-18T17:23:47.774Z,12.40
2023-04-18T17:26:16.288Z,13.20
2023-04-18T17:28:45.027Z,17.00
2023-04-18T17:31:15.421Z,9.70
2023-04-18T17:33:44.960Z,8.40
2023-04-18T17:36:13.702Z,14.10
2023-04-18T17:38:48.957Z,14.40
2023-04-18T17:41:18.276Z,10.30
2023-04-18T17:43:48.310Z,8.60
2023-04-18T17:46:17.101Z,10.10
2023-04-18T17:48:45.668Z,10.10
2023-04-18T17:51:16.632Z,10.60
2023-04-18T17:53:45.141Z,11.50
2023-04-18T17:56:13.669Z,10.30
2023-04-18T17:58:42.555Z,13.20
2023-04-18T18:01:17.837Z,12.70
2023-04-18T18:03:47.349Z,8.90
2023-04-18T18:06:16.293Z,10.40
2023-04-18T18:08:44.780Z,10.50
2023-04-18T18:11:13.488Z,10.90
2023-04-18T18:13:42.685Z,13.30
2023-04-18T18:16:11.536Z,11.70
2023-04-18T18:18:40.352Z,11.20
2023-04-18T18:21:09.211Z,10.30
2023-04-18T18:23:37.612Z,10.10
2023-04-18T18:26:06.912Z,10.60
2023-04-18T18:28:35.976Z,7.40
2023-04-18T18:31:04.498Z,12.40
2023-04-18T18:33:33.234Z,9.70
2023-04-18T18:36:02.169Z,11.10
2023-04-18T18:38:30.781Z,8.50
2023-04-18T18:41:00.989Z,9.70
2023-04-18T18:45:59.757Z,11.80
2023-04-18T18:48:28.471Z,12.30
2023-04-18T18:50:57.393Z,8.70
2023-04-18T18:53:26.317Z,10.00
2023-04-18T18:55:54.860Z,9.80
2023-04-18T18:58:23.325Z,10.60
2023-04-18T19:00:51.998Z,11.80
2023-04-18T19:03:21.972Z,11.40
2023-04-18T19:05:50.795Z,11.30
2023-04-18T19:08:19.509Z,11.60
2023-04-18T19:10:48.215Z,9.50
2023-04-18T19:13:21.387Z,12.30
2023-04-18T19:15:49.885Z,12.70
2023-04-18T19:18:20.178Z,10.50
2023-04-18T19:20:52.304Z,10.60
2023-04-18T19:23:21.121Z,17.40
2023-04-18T19:25:50.454Z,13.10
2023-04-18T19:28:19.320Z,14.10
2023-04-18T19:30:47.793Z,12.50
2023-04-18T19:33:17.405Z,16.00
2023-04-18T19:35:47.704Z,12.00
2023-04-18T19:38:16.208Z,18.50
2023-04-18T19:40:44.792Z,10.60
2023-04-18T19:43:13.406Z,11.70
2023-04-18T19:45:41.741Z,11.60
2023-04-18T19:48:10.340Z,14.30
2023-04-18T19:50:42.503Z,13.00
2023-04-18T19:53:11.497Z,10.00
2023-04-18T19:55:39.974Z,12.40
2023-04-18T19:58:08.575Z,13.30
2023-04-18T20:00:38.101Z,15.60
2023-04-18T20:03:06.774Z,12.40
2023-04-18T20:05:35.294Z,13.20
2023-04-18T20:08:03.916Z,14.40
2023-04-18T20:10:33.282Z,16.20
2023-04-18T20:13:02.340Z,14.20
2023-04-18T20:15:30.949Z,12.10
2023-04-18T20:17:59.561Z,15.10
2023-04-18T20:20:28.382Z,11.30
2023-04-18T20:22:56.585Z,15.00
2023-04-18T20:25:24.931Z,12.80
2023-04-18T20:27:53.710Z,15.90
2023-04-18T20:30:22.504Z,21.70
2023-04-18T20:32:50.830Z,12.00
2023-04-18T20:35:20.310Z,18.60
2023-04-18T20:37:50.000Z,19.00
2023-04-18T20:40:18.886Z,12.90
2023-04-18T20:42:47.703Z,12.10
2023-04-18T20:45:16.470Z,11.10
2023-04-18T20:47:44.984Z,17.60
2023-04-18T20:50:16.283Z,12.10
2023-04-18T20:52:44.973Z,14.10
2023-04-18T20:55:13.815Z,13.70
2023-04-18T20:57:42.140Z,18.50
2023-04-18T21:00:11.339Z,14.30
2023-04-18T21:02:41.620Z,13.00
2023-04-18T21:05:10.251Z,14.00
2023-04-18T21:07:38.942Z,13.80
2023-04-18T21:10:08.460Z,12.80
2023-04-18T21:12:37.650Z,14.20
2023-04-18T21:15:06.944Z,18.10
2023-04-18T21:17:35.693Z,16.90
2023-04-18T21:20:04.969Z,14.90
2023-04-18T21:22:33.541Z,14.00
2023-04-18T21:25:02.812Z,17.80
2023-04-18T21:27:31.399Z,26.50
2023-04-18T21:29:59.784Z,23.10
2023-04-18T21:32:28.571Z,17.20
2023-04-18T21:34:58.072Z,28.10
2023-04-18T21:37:26.450Z,17.00
2023-04-18T21:39:54.979Z,10.20
2023-04-18T21:42:23.424Z,20.50
2023-04-18T21:44:51.908Z,14.70
2023-04-18T21:47:20.928Z,14.00
2023-04-18T21:49:49.458Z,14.10
2023-04-18T21:52:18.050Z,12.00
2023-04-18T21:54:46.648Z,17.30
2023-04-18T21:57:15.131Z,16.40
2023-04-18T21:59:43.619Z,16.80
2023-04-18T22:02:12.888Z,15.50
2023-04-18T22:04:42.915Z,11.80
2023-04-18T22:07:15.930Z,11.90
2023-04-18T22:09:45.634Z,17.70
2023-04-18T22:12:16.989Z,18.40
2023-04-18T22:17:17.100Z,17.30
2023-04-18T22:19:45.375Z,17.60
2023-04-18T22:22:13.953Z,12.90
2023-04-18T22:24:42.436Z,13.70
2023-04-18T22:27:11.124Z,13.90
2023-04-18T22:29:39.512Z,16.10
2023-04-18T22:32:08.028Z,15.60
2023-04-18T22:34:36.565Z,13.50
2023-04-18T22:37:05.174Z,18.20
2023-04-18T22:39:35.177Z,17.00
2023-04-18T22:42:03.648Z,13.90
2023-04-18T22:44:33.356Z,16.60
2023-04-18T22:47:03.351Z,18.00
2023-04-18T22:49:33.484Z,30.40
2023-04-18T22:52:01.972Z,19.70
2023-04-18T22:54:31.273Z,15.00
2023-04-18T22:56:59.793Z,11.80
2023-04-18T22:59:28.256Z,15.10
2023-04-18T23:01:57.539Z,25.40
2023-04-18T23:04:26.651Z,18.40
2023-04-18T23:06:55.120Z,16.70
2023-04-18T23:09:24.640Z,16.50
2023-04-18T23:11:53.026Z,23.50
2023-04-18T23:14:21.695Z,17.20
2023-04-18T23:16:50.064Z,20.80
2023-04-18T23:19:18.524Z,15.40
2023-04-18T23:21:48.982Z,18.20
2023-04-18T23:24:18.117Z,25.20
2023-04-18T23:26:46.892Z,18.90
2023-04-18T23:29:15.365Z,20.90
2023-04-18T23:31:43.968Z,26.10
2023-04-18T23:34:12.727Z,22.20
2023-04-18T23:36:41.297Z,24.10
2023-04-18T23:39:09.867Z,20.20
2023-04-18T23:41:38.743Z,29.20
2023-04-18T23:44:07.456Z,17.30
2023-04-18T23:46:36.621Z,21.20
2023-04-18T23:49:05.242Z,23.70
2023-04-18T23:51:33.756Z,24.40
2023-04-18T23:54:02.224Z,23.30
2023-04-18T23:56:30.898Z,23.20
2023-04-18T23:58:59.476Z,23.10
